sensor_id;sensor_type;location;lat;lon;timestamp;pressure;altitude;pressure_sealevel;temperature;humidity
23619;BME280;18207;32.078;34.818;2023-11-22T00:01:57;101375.78;;;26.00;40.20
23619;BME280;18207;32.078;34.818;2023-11-22T00:04:27;101385.75;;;25.98;40.34
23619;BME280;18207;32.078;34.818;2023-11-22T00:06:56;101388.91;;;25.96;40.18
23619;BME280;18207;32.078;34.818;2023-11-22T00:09:28;101380.03;;;25.94;40.17
23619;BME280;18207;32.078;34.818;2023-11-22T00:12:08;101378.25;;;25.90;40.15
23619;BME280;18207;32.078;34.818;2023-11-22T00:14:37;101364.53;;;25.88;40.28
23619;BME280;18207;32.078;34.818;2023-11-22T00:17:07;101366.88;;;25.86;40.29
23619;BME280;18207;32.078;34.818;2023-11-22T00:19:37;101380.16;;;25.86;40.21
23619;BME280;18207;32.078;34.818;2023-11-22T00:22:08;101372.06;;;25.84;40.23
23619;BME280;18207;32.078;34.818;2023-11-22T00:24:49;101371.94;;;25.81;40.26
23619;BME280;18207;32.078;34.818;2023-11-22T00:27:32;101371.03;;;25.77;40.24
23619;BME280;18207;32.078;34.818;2023-11-22T00:30:06;101365.25;;;25.73;40.01
23619;BME280;18207;32.078;34.818;2023-11-22T00:32:36;101363.97;;;25.71;40.28
23619;BME280;18207;32.078;34.818;2023-11-22T00:35:06;101357.88;;;25.69;40.28
23619;BME280;18207;32.078;34.818;2023-11-22T00:37:37;101360.69;;;25.69;40.40
23619;BME280;18207;32.078;34.818;2023-11-22T00:40:11;101354.69;;;25.70;40.18
23619;BME280;18207;32.078;34.818;2023-11-22T00:42:41;101346.94;;;25.67;40.28
23619;BME280;18207;32.078;34.818;2023-11-22T00:45:11;101346.47;;;25.65;40.21
23619;BME280;18207;32.078;34.818;2023-11-22T00:47:41;101345.69;;;25.65;40.47
23619;BME280;18207;32.078;34.818;2023-11-22T00:50:11;101335.13;;;25.62;40.33
23619;BME280;18207;32.078;34.818;2023-11-22T00:52:41;101348.03;;;25.63;40.25
23619;BME280;18207;32.078;34.818;2023-11-22T00:55:15;101345.56;;;25.61;40.38
23619;BME280;18207;32.078;34.818;2023-11-22T00:57:45;101331.88;;;25.60;40.27
23619;BME280;18207;32.078;34.818;2023-11-22T01:00:23;101340.31;;;25.60;40.35
23619;BME280;18207;32.078;34.818;2023-11-22T01:02:53;101344.28;;;25.59;40.13
23619;BME280;18207;32.078;34.818;2023-11-22T01:05:23;101349.09;;;25.58;40.43
23619;BME280;18207;32.078;34.818;2023-11-22T01:07:52;101336.19;;;25.57;40.42
23619;BME280;18207;32.078;34.818;2023-11-22T01:10:24;101340.66;;;25.58;40.23
23619;BME280;18207;32.078;34.818;2023-11-22T01:12:54;101337.84;;;25.58;40.32
23619;BME280;18207;32.078;34.818;2023-11-22T01:15:23;101332.66;;;25.60;40.35
23619;BME280;18207;32.078;34.818;2023-11-22T01:17:53;101324.69;;;25.62;40.36
23619;BME280;18207;32.078;34.818;2023-11-22T01:20:23;101324.31;;;25.64;40.32
23619;BME280;18207;32.078;34.818;2023-11-22T01:22:53;101319.16;;;25.66;40.60
23619;BME280;18207;32.078;34.818;2023-11-22T01:25:24;101317.63;;;25.68;40.33
23619;BME280;18207;32.078;34.818;2023-11-22T01:27:54;101320.44;;;25.68;40.36
23619;BME280;18207;32.078;34.818;2023-11-22T01:30:24;101297.59;;;25.70;40.42
23619;BME280;18207;32.078;34.818;2023-11-22T01:32:53;101304.81;;;25.71;40.24
23619;BME280;18207;32.078;34.818;2023-11-22T01:35:23;101314.09;;;25.71;40.57
23619;BME280;18207;32.078;34.818;2023-11-22T01:37:53;101281.50;;;25.70;40.33
23619;BME280;18207;32.078;34.818;2023-11-22T01:40:27;101297.59;;;25.70;40.17
23619;BME280;18207;32.078;34.818;2023-11-22T01:42:56;101308.38;;;25.68;40.08
23619;BME280;18207;32.078;34.818;2023-11-22T01:45:26;101308.28;;;25.64;40.20
23619;BME280;18207;32.078;34.818;2023-11-22T01:47:56;101306.97;;;25.62;40.37
23619;BME280;18207;32.078;34.818;2023-11-22T01:50:26;101289.63;;;25.60;40.04
23619;BME280;18207;32.078;34.818;2023-11-22T01:52:57;101316.16;;;25.59;40.15
23619;BME280;18207;32.078;34.818;2023-11-22T01:55:29;101305.59;;;25.56;40.31
23619;BME280;18207;32.078;34.818;2023-11-22T01:57:58;101295.88;;;25.53;40.39
23619;BME280;18207;32.078;34.818;2023-11-22T02:00:35;101296.56;;;25.50;40.25
23619;BME280;18207;32.078;34.818;2023-11-22T02:03:05;101303.75;;;25.48;40.22
23619;BME280;18207;32.078;34.818;2023-11-22T02:05:35;101299.66;;;25.45;40.30
23619;BME280;18207;32.078;34.818;2023-11-22T02:08:04;101293.88;;;25.42;40.30
23619;BME280;18207;32.078;34.818;2023-11-22T02:10:36;101300.69;;;25.41;40.27
23619;BME280;18207;32.078;34.818;2023-11-22T02:13:06;101293.78;;;25.38;40.57
23619;BME280;18207;32.078;34.818;2023-11-22T02:15:37;101291.81;;;25.39;40.55
23619;BME280;18207;32.078;34.818;2023-11-22T02:18:07;101284.16;;;25.39;40.60
23619;BME280;18207;32.078;34.818;2023-11-22T02:20:42;101300.69;;;25.41;40.46
23619;BME280;18207;32.078;34.818;2023-11-22T02:23:17;101301.16;;;25.43;40.35
23619;BME280;18207;32.078;34.818;2023-11-22T02:25:51;101298.00;;;25.44;40.46
23619;BME280;18207;32.078;34.818;2023-11-22T02:28:25;101306.09;;;25.46;40.49
23619;BME280;18207;32.078;34.818;2023-11-22T02:30:57;101300.09;;;25.47;40.29
23619;BME280;18207;32.078;34.818;2023-11-22T02:33:27;101285.69;;;25.49;40.45
23619;BME280;18207;32.078;34.818;2023-11-22T02:35:58;101283.31;;;25.51;40.29
23619;BME280;18207;32.078;34.818;2023-11-22T02:38:29;101282.59;;;25.54;40.73
23619;BME280;18207;32.078;34.818;2023-11-22T02:40:59;101272.97;;;25.55;40.54
23619;BME280;18207;32.078;34.818;2023-11-22T02:43:29;101272.63;;;25.56;40.33
23619;BME280;18207;32.078;34.818;2023-11-22T02:45:59;101261.03;;;25.58;40.54
23619;BME280;18207;32.078;34.818;2023-11-22T02:48:28;101267.81;;;25.57;40.43
23619;BME280;18207;32.078;34.818;2023-11-22T02:50:58;101261.03;;;25.58;40.47
23619;BME280;18207;32.078;34.818;2023-11-22T02:53:30;101259.38;;;25.57;40.20
23619;BME280;18207;32.078;34.818;2023-11-22T02:56:04;101258.53;;;25.56;40.26
23619;BME280;18207;32.078;34.818;2023-11-22T02:58:34;101253.28;;;25.55;40.60
23619;BME280;18207;32.078;34.818;2023-11-22T03:01:04;101250.00;;;25.53;40.39
23619;BME280;18207;32.078;34.818;2023-11-22T03:03:35;101253.53;;;25.50;40.12
23619;BME280;18207;32.078;34.818;2023-11-22T03:06:06;101249.88;;;25.49;40.33
23619;BME280;18207;32.078;34.818;2023-11-22T03:08:37;101249.88;;;25.49;40.36
23619;BME280;18207;32.078;34.818;2023-11-22T03:11:07;101259.97;;;25.50;40.49
23619;BME280;18207;32.078;34.818;2023-11-22T03:13:46;101264.06;;;25.53;40.40
23619;BME280;18207;32.078;34.818;2023-11-22T03:16:17;101260.06;;;25.54;40.68
23619;BME280;18207;32.078;34.818;2023-11-22T03:18:47;101260.91;;;25.54;40.42
23619;BME280;18207;32.078;34.818;2023-11-22T03:21:18;101271.81;;;25.56;40.40
23619;BME280;18207;32.078;34.818;2023-11-22T03:23:50;101273.09;;;25.58;40.36
23619;BME280;18207;32.078;34.818;2023-11-22T03:26:20;101273.91;;;25.59;40.57
23619;BME280;18207;32.078;34.818;2023-11-22T03:28:50;101265.91;;;25.61;40.52
23619;BME280;18207;32.078;34.818;2023-11-22T03:31:20;101272.38;;;25.61;40.75
23619;BME280;18207;32.078;34.818;2023-11-22T03:33:50;101279.66;;;25.62;40.57
23619;BME280;18207;32.078;34.818;2023-11-22T03:36:20;101266.38;;;25.63;40.57
23619;BME280;18207;32.078;34.818;2023-11-22T03:38:52;101264.03;;;25.65;40.43
23619;BME280;18207;32.078;34.818;2023-11-22T03:41:22;101259.56;;;25.64;40.54
23619;BME280;18207;32.078;34.818;2023-11-22T03:43:52;101272.47;;;25.65;40.52
23619;BME280;18207;32.078;34.818;2023-11-22T03:46:25;101275.28;;;25.65;40.54
23619;BME280;18207;32.078;34.818;2023-11-22T03:48:55;101259.56;;;25.64;40.44
23619;BME280;18207;32.078;34.818;2023-11-22T03:51:25;101264.03;;;25.65;40.51
23619;BME280;18207;32.078;34.818;2023-11-22T03:53:57;101252.78;;;25.65;40.60
23619;BME280;18207;32.078;34.818;2023-11-22T03:56:26;101260.84;;;25.66;40.63
23619;BME280;18207;32.078;34.818;2023-11-22T03:58:56;101255.59;;;25.65;40.50
23619;BME280;18207;32.078;34.818;2023-11-22T04:01:26;101243.06;;;25.62;40.29
23619;BME280;18207;32.078;34.818;2023-11-22T04:03:57;101236.97;;;25.60;40.33
23619;BME280;18207;32.078;34.818;2023-11-22T04:06:26;101249.38;;;25.59;40.36
23619;BME280;18207;32.078;34.818;2023-11-22T04:08:59;101263.47;;;25.59;40.66
23619;BME280;18207;32.078;34.818;2023-11-22T04:11:29;101263.47;;;25.59;40.33
23619;BME280;18207;32.078;34.818;2023-11-22T04:13:59;101251.84;;;25.61;40.30
23619;BME280;18207;32.078;34.818;2023-11-22T04:16:29;101246.22;;;25.61;40.29
23619;BME280;18207;32.078;34.818;2023-11-22T04:18:59;101255.13;;;25.63;40.41
23619;BME280;18207;32.078;34.818;2023-11-22T04:21:29;101246.69;;;25.63;40.33
23619;BME280;18207;32.078;34.818;2023-11-22T04:24:01;101251.13;;;25.64;40.35
23619;BME280;18207;32.078;34.818;2023-11-22T04:26:31;101232.59;;;25.63;40.30
23619;BME280;18207;32.078;34.818;2023-11-22T04:29:00;101235.41;;;25.63;40.34
23619;BME280;18207;32.078;34.818;2023-11-22T04:31:30;101224.53;;;25.61;40.24
23619;BME280;18207;32.078;34.818;2023-11-22T04:34:00;101224.53;;;25.61;40.49
23619;BME280;18207;32.078;34.818;2023-11-22T04:36:30;101223.69;;;25.61;40.34
23619;BME280;18207;32.078;34.818;2023-11-22T04:39:01;101224.53;;;25.61;40.04
23619;BME280;18207;32.078;34.818;2023-11-22T04:41:31;101221.72;;;25.61;40.45
23619;BME280;18207;32.078;34.818;2023-11-22T04:44:01;101209.59;;;25.61;40.16
23619;BME280;18207;32.078;34.818;2023-11-22T04:46:30;101225.69;;;25.60;40.21
23619;BME280;18207;32.078;34.818;2023-11-22T04:49:00;101221.25;;;25.59;40.26
23619;BME280;18207;32.078;34.818;2023-11-22T04:51:30;101216.78;;;25.58;40.43
23619;BME280;18207;32.078;34.818;2023-11-22T04:54:02;101215.97;;;25.58;40.30
23619;BME280;18207;32.078;34.818;2023-11-22T04:56:31;101217.97;;;25.57;40.25
23619;BME280;18207;32.078;34.818;2023-11-22T04:59:01;101220.44;;;25.59;40.22
23619;BME280;18207;32.078;34.818;2023-11-22T05:01:32;101222.88;;;25.60;40.09
23619;BME280;18207;32.078;34.818;2023-11-22T05:04:03;101228.50;;;25.60;40.06
23619;BME280;18207;32.078;34.818;2023-11-22T05:06:33;101232.03;;;25.57;40.17
23619;BME280;18207;32.078;34.818;2023-11-22T05:09:04;101231.22;;;25.57;39.96
23619;BME280;18207;32.078;34.818;2023-11-22T05:11:34;101228.41;;;25.57;39.87
23619;BME280;18207;32.078;34.818;2023-11-22T05:14:03;101225.22;;;25.58;40.04
23619;BME280;18207;32.078;34.818;2023-11-22T05:16:33;101226.06;;;25.59;40.18
23619;BME280;18207;32.078;34.818;2023-11-22T05:19:03;101232.97;;;25.61;40.19
23619;BME280;18207;32.078;34.818;2023-11-22T05:21:33;101226.63;;;25.64;40.06
23619;BME280;18207;32.078;34.818;2023-11-22T05:24:07;101240.81;;;25.68;40.24
23619;BME280;18207;32.078;34.818;2023-11-22T05:26:37;101247.72;;;25.70;40.21
23619;BME280;18207;32.078;34.818;2023-11-22T05:29:07;101242.53;;;25.72;40.20
23619;BME280;18207;32.078;34.818;2023-11-22T05:31:39;101232.56;;;25.75;40.02
23619;BME280;18207;32.078;34.818;2023-11-22T05:34:08;101235.03;;;25.76;40.19
23619;BME280;18207;32.078;34.818;2023-11-22T05:36:38;101245.97;;;25.78;40.02
23619;BME280;18207;32.078;34.818;2023-11-22T05:39:10;101243.56;;;25.80;40.01
23619;BME280;18207;32.078;34.818;2023-11-22T05:41:39;101248.50;;;25.83;40.23
23619;BME280;18207;32.078;34.818;2023-11-22T05:44:09;101242.16;;;25.86;39.98
23619;BME280;18207;32.078;34.818;2023-11-22T05:46:39;101243.91;;;25.90;40.20
23619;BME280;18207;32.078;34.818;2023-11-22T05:49:08;101248.91;;;25.97;40.26
23619;BME280;18207;32.078;34.818;2023-11-22T05:51:39;101251.53;;;26.05;40.15
23619;BME280;18207;32.078;34.818;2023-11-22T05:54:11;101245.03;;;26.16;40.04
23619;BME280;18207;32.078;34.818;2023-11-22T05:56:42;101246.88;;;26.24;40.14
23619;BME280;18207;32.078;34.818;2023-11-22T05:59:12;101251.13;;;26.34;40.09
23619;BME280;18207;32.078;34.818;2023-11-22T06:01:42;101256.25;;;26.44;40.12
23619;BME280;18207;32.078;34.818;2023-11-22T06:04:12;101253.28;;;26.52;39.88
23619;BME280;18207;32.078;34.818;2023-11-22T06:06:41;101253.09;;;26.61;39.84
23619;BME280;18207;32.078;34.818;2023-11-22T06:09:13;101250.06;;;26.69;39.87
23619;BME280;18207;32.078;34.818;2023-11-22T06:11:43;101252.72;;;26.78;40.06
23619;BME280;18207;32.078;34.818;2023-11-22T06:14:13;101236.78;;;26.85;39.88
23619;BME280;18207;32.078;34.818;2023-11-22T06:16:43;101244.25;;;26.93;39.88
23619;BME280;18207;32.078;34.818;2023-11-22T06:19:12;101248.06;;;27.00;39.83
23619;BME280;18207;32.078;34.818;2023-11-22T06:21:42;101236.13;;;27.07;39.56
23619;BME280;18207;32.078;34.818;2023-11-22T06:24:14;101237.13;;;27.14;39.61
23619;BME280;18207;32.078;34.818;2023-11-22T06:26:44;101231.66;;;27.21;39.86
23619;BME280;18207;32.078;34.818;2023-11-22T06:29:15;101241.53;;;27.31;39.72
23619;BME280;18207;32.078;34.818;2023-11-22T06:31:52;101235.69;;;27.39;39.67
23619;BME280;18207;32.078;34.818;2023-11-22T06:34:21;101226.63;;;27.49;39.56
23619;BME280;18207;32.078;34.818;2023-11-22T06:36:51;101230.84;;;27.59;39.75
23619;BME280;18207;32.078;34.818;2023-11-22T06:39:23;101217.00;;;27.69;39.55
23619;BME280;18207;32.078;34.818;2023-11-22T06:41:53;101232.97;;;27.80;39.46
23619;BME280;18207;32.078;34.818;2023-11-22T06:44:22;101229.06;;;27.88;39.32
23619;BME280;18207;32.078;34.818;2023-11-22T06:46:52;101231.69;;;27.97;39.19
23619;BME280;18207;32.078;34.818;2023-11-22T06:49:22;101243.13;;;28.04;39.09
23619;BME280;18207;32.078;34.818;2023-11-22T06:51:51;101233.13;;;28.10;39.10
23619;BME280;18207;32.078;34.818;2023-11-22T06:54:23;101234.47;;;28.16;38.99
23619;BME280;18207;32.078;34.818;2023-11-22T06:56:53;101236.16;;;28.20;38.79
23619;BME280;18207;32.078;34.818;2023-11-22T06:59:22;101244.34;;;28.25;38.92
23619;BME280;18207;32.078;34.818;2023-11-22T07:01:52;101241.19;;;28.27;38.58
23619;BME280;18207;32.078;34.818;2023-11-22T07:04:21;101250.91;;;28.29;38.63
23619;BME280;18207;32.078;34.818;2023-11-22T07:06:51;101246.88;;;28.30;38.33
23619;BME280;18207;32.078;34.818;2023-11-22T07:09:23;101243.69;;;28.32;38.46
23619;BME280;18207;32.078;34.818;2023-11-22T07:11:53;101243.31;;;28.33;38.23
23619;BME280;18207;32.078;34.818;2023-11-22T07:14:25;101238.53;;;28.37;37.92
23619;BME280;18207;32.078;34.818;2023-11-22T07:16:57;101232.56;;;28.42;38.11
23619;BME280;18207;32.078;34.818;2023-11-22T07:19:27;101234.72;;;28.49;38.06
23619;BME280;18207;32.078;34.818;2023-11-22T07:21:57;101229.63;;;28.58;37.87
23619;BME280;18207;32.078;34.818;2023-11-22T07:24:29;101226.50;;;28.66;37.75
23619;BME280;18207;32.078;34.818;2023-11-22T07:27:09;101231.16;;;28.77;37.42
23619;BME280;18207;32.078;34.818;2023-11-22T07:29:41;101227.72;;;28.87;37.71
23619;BME280;18207;32.078;34.818;2023-11-22T07:32:11;101220.97;;;28.95;37.51
23619;BME280;18207;32.078;34.818;2023-11-22T07:34:41;101230.44;;;29.06;37.36
23619;BME280;18207;32.078;34.818;2023-11-22T07:37:11;101233.41;;;29.17;37.41
23619;BME280;18207;32.078;34.818;2023-11-22T07:39:44;101217.78;;;29.26;37.39
23619;BME280;18207;32.078;34.818;2023-11-22T07:42:13;101211.09;;;29.38;36.80
23619;BME280;18207;32.078;34.818;2023-11-22T07:44:43;101220.56;;;29.49;37.02
23619;BME280;18207;32.078;34.818;2023-11-22T07:47:13;101205.28;;;29.56;36.57
23619;BME280;18207;32.078;34.818;2023-11-22T07:49:42;101201.72;;;29.63;36.57
23619;BME280;18207;32.078;34.818;2023-11-22T07:52:12;101186.41;;;29.71;36.52
23619;BME280;18207;32.078;34.818;2023-11-22T07:54:43;101183.28;;;29.79;36.76
23619;BME280;18207;32.078;34.818;2023-11-22T07:57:13;101198.34;;;29.87;36.37
23619;BME280;18207;32.078;34.818;2023-11-22T07:59:43;101189.97;;;29.94;36.08
23619;BME280;18207;32.078;34.818;2023-11-22T08:02:15;101186.44;;;30.04;36.04
23619;BME280;18207;32.078;34.818;2023-11-22T08:04:46;101181.25;;;30.13;36.18
23619;BME280;18207;32.078;34.818;2023-11-22T08:07:18;101155.78;;;30.20;35.66
23619;BME280;18207;32.078;34.818;2023-11-22T08:09:51;101153.00;;;30.27;35.66
23619;BME280;18207;32.078;34.818;2023-11-22T08:12:21;101159.56;;;30.34;35.67
23619;BME280;18207;32.078;34.818;2023-11-22T08:14:51;101160.44;;;30.42;35.58
23619;BME280;18207;32.078;34.818;2023-11-22T08:17:23;101158.84;;;30.47;35.14
23619;BME280;18207;32.078;34.818;2023-11-22T08:19:53;101158.53;;;30.52;35.46
23619;BME280;18207;32.078;34.818;2023-11-22T08:22:23;101147.63;;;30.58;35.40
23619;BME280;18207;32.078;34.818;2023-11-22T08:24:57;101138.75;;;30.63;35.31
23619;BME280;18207;32.078;34.818;2023-11-22T08:27:26;101138.38;;;30.68;35.17
23619;BME280;18207;32.078;34.818;2023-11-22T08:29:56;101137.56;;;30.71;34.71
23619;BME280;18207;32.078;34.818;2023-11-22T08:32:25;101138.00;;;30.73;35.05
23619;BME280;18207;32.078;34.818;2023-11-22T08:34:59;101128.72;;;30.76;35.10
23619;BME280;18207;32.078;34.818;2023-11-22T08:37:29;101132.75;;;30.75;34.84
23619;BME280;18207;32.078;34.818;2023-11-22T08:40:06;101138.44;;;30.75;34.49
23619;BME280;18207;32.078;34.818;2023-11-22T08:42:36;101136.38;;;30.72;34.43
23619;BME280;18207;32.078;34.818;2023-11-22T08:45:06;101137.56;;;30.71;34.75
23619;BME280;18207;32.078;34.818;2023-11-22T08:47:36;101133.50;;;30.68;34.62
23619;BME280;18207;32.078;34.818;2023-11-22T08:50:08;101137.97;;;30.66;34.13
23619;BME280;18207;32.078;34.818;2023-11-22T08:52:39;101133.06;;;30.63;34.34
23619;BME280;18207;32.078;34.818;2023-11-22T08:55:12;101124.53;;;30.59;34.53
23619;BME280;18207;32.078;34.818;2023-11-22T08:57:42;101133.81;;;30.56;34.12
23619;BME280;18207;32.078;34.818;2023-11-22T09:00:13;101133.81;;;30.53;34.17
23619;BME280;18207;32.078;34.818;2023-11-22T09:02:43;101144.34;;;30.49;33.99
23619;BME280;18207;32.078;34.818;2023-11-22T09:05:13;101133.31;;;30.47;34.28
23619;BME280;18207;32.078;34.818;2023-11-22T09:07:44;101129.66;;;30.43;33.71
23619;BME280;18207;32.078;34.818;2023-11-22T09:10:16;101124.78;;;30.41;33.53
23619;BME280;18207;32.078;34.818;2023-11-22T09:12:46;101130.00;;;30.39;33.63
23619;BME280;18207;32.078;34.818;2023-11-22T09:15:16;101131.63;;;30.36;33.77
23619;BME280;18207;32.078;34.818;2023-11-22T09:17:52;101121.88;;;30.34;33.13
23619;BME280;18207;32.078;34.818;2023-11-22T09:20:22;101116.22;;;30.34;33.87
23619;BME280;18207;32.078;34.818;2023-11-22T09:22:53;101130.75;;;30.32;33.17
23619;BME280;18207;32.078;34.818;2023-11-22T09:25:26;101119.41;;;30.29;33.36
23619;BME280;18207;32.078;34.818;2023-11-22T09:27:57;101120.59;;;30.28;33.68
23619;BME280;18207;32.078;34.818;2023-11-22T09:30:36;101117.34;;;30.26;33.41
23619;BME280;18207;32.078;34.818;2023-11-22T09:33:08;101119.78;;;30.24;33.61
23619;BME280;18207;32.078;34.818;2023-11-22T09:35:39;101121.34;;;30.21;33.11
23619;BME280;18207;32.078;34.818;2023-11-22T09:38:09;101115.66;;;30.18;33.29
23619;BME280;18207;32.078;34.818;2023-11-22T09:40:45;101108.34;;;30.17;33.13
23619;BME280;18207;32.078;34.818;2023-11-22T09:43:16;101099.81;;;30.13;32.89
23619;BME280;18207;32.078;34.818;2023-11-22T09:45:48;101096.56;;;30.11;33.29
23619;BME280;18207;32.078;34.818;2023-11-22T09:48:24;101090.84;;;30.08;33.10
23619;BME280;18207;32.078;34.818;2023-11-22T09:51:04;101078.69;;;30.04;32.92
23619;BME280;18207;32.078;34.818;2023-11-22T09:53:41;101060.03;;;29.99;32.55
23619;BME280;18207;32.078;34.818;2023-11-22T09:56:17;101048.25;;;29.97;33.25
23619;BME280;18207;32.078;34.818;2023-11-22T09:58:51;101038.53;;;29.95;33.14
23619;BME280;18207;32.078;34.818;2023-11-22T10:01:24;101027.56;;;29.93;32.96
23619;BME280;18207;32.078;34.818;2023-11-22T10:04:19;101016.59;;;29.92;32.94
23619;BME280;18207;32.078;34.818;2023-11-22T10:06:53;101021.03;;;29.89;33.00
23619;BME280;18207;32.078;34.818;2023-11-22T10:09:22;101019.41;;;29.88;32.56
23619;BME280;18207;32.078;34.818;2023-11-22T10:11:58;101016.94;;;29.87;32.68
23619;BME280;18207;32.078;34.818;2023-11-22T10:14:30;101017.75;;;29.84;33.00
23619;BME280;18207;32.078;34.818;2023-11-22T10:17:02;101017.31;;;29.82;32.83
23619;BME280;18207;32.078;34.818;2023-11-22T10:19:33;101019.31;;;29.81;32.77
23619;BME280;18207;32.078;34.818;2023-11-22T10:22:05;101016.47;;;29.81;32.67
23619;BME280;18207;32.078;34.818;2023-11-22T10:24:35;101016.88;;;29.80;33.01
23619;BME280;18207;32.078;34.818;2023-11-22T10:27:07;101001.91;;;29.79;32.86
23619;BME280;18207;32.078;34.818;2023-11-22T10:29:40;100992.97;;;29.77;32.64
23619;BME280;18207;32.078;34.818;2023-11-22T10:32:12;100994.97;;;29.77;32.58
23619;BME280;18207;32.078;34.818;2023-11-22T10:34:41;100997.81;;;29.77;32.87
23619;BME280;18207;32.078;34.818;2023-11-22T10:37:11;100992.56;;;29.75;32.60
23619;BME280;18207;32.078;34.818;2023-11-22T10:39:41;100988.91;;;29.75;32.43
23619;BME280;18207;32.078;34.818;2023-11-22T10:42:13;100984.88;;;29.76;32.34
23619;BME280;18207;32.078;34.818;2023-11-22T10:44:43;100987.72;;;29.76;32.58
23619;BME280;18207;32.078;34.818;2023-11-22T10:47:15;100990.94;;;29.78;32.54
23619;BME280;18207;32.078;34.818;2023-11-22T10:49:45;100983.66;;;29.77;32.55
23619;BME280;18207;32.078;34.818;2023-11-22T10:52:18;100970.31;;;29.77;32.64
23619;BME280;18207;32.078;34.818;2023-11-22T10:55:01;100960.97;;;29.77;32.51
23619;BME280;18207;32.078;34.818;2023-11-22T10:57:38;100964.22;;;29.75;32.47
23619;BME280;18207;32.078;34.818;2023-11-22T11:00:10;100952.09;;;29.75;32.45
23619;BME280;18207;32.078;34.818;2023-11-22T11:02:45;100952.88;;;29.75;32.87
23619;BME280;18207;32.078;34.818;2023-11-22T11:05:21;100943.59;;;29.75;32.74
23619;BME280;18207;32.078;34.818;2023-11-22T11:08:02;100941.94;;;29.74;32.75
23619;BME280;18207;32.078;34.818;2023-11-22T11:10:40;100945.59;;;29.74;32.65
23619;BME280;18207;32.078;34.818;2023-11-22T11:13:20;100933.03;;;29.75;32.24
23619;BME280;18207;32.078;34.818;2023-11-22T11:15:51;100916.44;;;29.74;32.59
23619;BME280;18207;32.078;34.818;2023-11-22T11:18:23;100926.16;;;29.73;32.50
23619;BME280;18207;32.078;34.818;2023-11-22T11:20:58;100923.69;;;29.71;32.45
23619;BME280;18207;32.078;34.818;2023-11-22T11:23:28;100911.53;;;29.67;32.56
23619;BME280;18207;32.078;34.818;2023-11-22T11:26:13;100919.22;;;29.67;32.22
23619;BME280;18207;32.078;34.818;2023-11-22T11:28:47;100914.34;;;29.64;32.32
23619;BME280;18207;32.078;34.818;2023-11-22T11:31:21;100916.34;;;29.63;32.21
23619;BME280;18207;32.078;34.818;2023-11-22T11:33:55;100926.44;;;29.61;32.41
23619;BME280;18207;32.078;34.818;2023-11-22T11:36:28;100926.84;;;29.59;32.71
23619;BME280;18207;32.078;34.818;2023-11-22T11:39:01;100929.69;;;29.59;32.68
23619;BME280;18207;32.078;34.818;2023-11-22T11:41:33;100933.31;;;29.60;32.35
23619;BME280;18207;32.078;34.818;2023-11-22T11:44:08;100947.09;;;29.61;32.58
23619;BME280;18207;32.078;34.818;2023-11-22T11:46:39;100945.09;;;29.62;32.30
23619;BME280;18207;32.078;34.818;2023-11-22T11:49:12;100942.69;;;29.64;32.34
23619;BME280;18207;32.078;34.818;2023-11-22T11:51:42;100936.59;;;29.65;32.45
23619;BME280;18207;32.078;34.818;2023-11-22T11:54:13;100944.72;;;29.67;32.58
23619;BME280;18207;32.078;34.818;2023-11-22T11:56:45;100946.34;;;29.68;32.54
23619;BME280;18207;32.078;34.818;2023-11-22T11:59:21;100940.28;;;29.69;32.26
23619;BME280;18207;32.078;34.818;2023-11-22T12:01:53;100935.44;;;29.70;32.42
23619;BME280;18207;32.078;34.818;2023-11-22T12:04:24;100930.59;;;29.70;32.61
23619;BME280;18207;32.078;34.818;2023-11-22T12:06:54;100931.41;;;29.71;32.27
23619;BME280;18207;32.078;34.818;2023-11-22T12:09:24;100927.34;;;29.72;32.30
23619;BME280;18207;32.078;34.818;2023-11-22T12:11:55;100913.19;;;29.72;32.59
23619;BME280;18207;32.078;34.818;2023-11-22T12:14:26;100925.75;;;29.74;32.25
23619;BME280;18207;32.078;34.818;2023-11-22T12:16:58;100921.72;;;29.75;32.13
23619;BME280;18207;32.078;34.818;2023-11-22T12:19:29;100916.88;;;29.76;32.02
23619;BME280;18207;32.078;34.818;2023-11-22T12:22:01;100920.50;;;29.76;32.34
23619;BME280;18207;32.078;34.818;2023-11-22T12:24:31;100912.00;;;29.76;32.32
23619;BME280;18207;32.078;34.818;2023-11-22T12:27:01;100913.63;;;29.77;31.96
23619;BME280;18207;32.078;34.818;2023-11-22T12:29:35;100921.31;;;29.77;32.50
23619;BME280;18207;32.078;34.818;2023-11-22T12:32:06;100929.00;;;29.76;32.24
23619;BME280;18207;32.078;34.818;2023-11-22T12:34:37;100932.25;;;29.78;32.13
23619;BME280;18207;32.078;34.818;2023-11-22T12:37:06;100931.06;;;29.79;32.16
23619;BME280;18207;32.078;34.818;2023-11-22T12:39:37;100922.97;;;29.81;32.54
23619;BME280;18207;32.078;34.818;2023-11-22T12:42:07;100935.13;;;29.82;32.34
23619;BME280;18207;32.078;34.818;2023-11-22T12:44:49;100935.53;;;29.84;32.07
23619;BME280;18207;32.078;34.818;2023-11-22T12:47:33;100957.03;;;29.85;32.15
23619;BME280;18207;32.078;34.818;2023-11-22T12:50:06;100953.34;;;29.84;31.99
23619;BME280;18207;32.078;34.818;2023-11-22T12:52:36;100965.13;;;29.86;32.44
23619;BME280;18207;32.078;34.818;2023-11-22T12:55:08;100966.75;;;29.87;32.50
23619;BME280;18207;32.078;34.818;2023-11-22T12:57:37;100945.69;;;29.88;32.25
23619;BME280;18207;32.078;34.818;2023-11-22T13:00:11;100942.47;;;29.90;32.05
23619;BME280;18207;32.078;34.818;2023-11-22T13:02:41;100947.34;;;29.89;32.36